Swanlake, Idaho
Current Conditions -  °F | °C
As of 11:26 AM on Thursday 29 Jan 2015 (Local Time) from KLGU Reporting Station
Haze Haze  
Wind Chill: 34°   Ceiling: 200
Heat Index: 34°   Visibility: 2.5mi
Dew Point: 33°   Wind: 3mph
Humidity: 96%   Direction: NA
Pressure: 30.39"   Gusts: NA
Location:  42.31°N, 112.01°W
Report Text: KLGU 291826Z AUTO VRB03KT 2 1/2SM BR OVC002 01/01 A3039 RMK AO2 T00110006
Loading
Personal Weather Stations






























Interactive Weather Map New forecast layout! Learn more

10-Day Weather Forecast

Advertisements
Track Severe Weather on mobile